createdAt,value
2023-03-01T00:00:08.131Z,12.10
2023-03-01T00:02:38.006Z,10.85
2023-03-01T00:05:08.396Z,12.07
2023-03-01T00:07:34.732Z,11.00
2023-03-01T00:10:01.097Z,10.50
2023-03-01T00:12:28.702Z,10.80
2023-03-01T00:14:55.076Z,11.18
2023-03-01T00:17:21.416Z,10.48
2023-03-01T00:19:47.826Z,10.55
2023-03-01T00:22:14.256Z,11.07
2023-03-01T00:24:40.638Z,10.30
2023-03-01T00:27:07.112Z,10.55
2023-03-01T00:29:33.473Z,10.70
2023-03-01T00:32:00.239Z,10.57
2023-03-01T00:34:26.839Z,12.88
2023-03-01T00:36:54.863Z,10.32
2023-03-01T00:39:21.250Z,11.35
2023-03-01T00:41:47.703Z,11.80
2023-03-01T00:44:14.045Z,11.27
2023-03-01T00:46:40.710Z,11.52
2023-03-01T00:49:07.174Z,10.45
2023-03-01T00:51:33.667Z,11.27
2023-03-01T00:54:01.576Z,11.07
2023-03-01T00:56:28.823Z,11.65
2023-03-01T00:58:55.484Z,11.90
2023-03-01T01:01:24.109Z,11.80
2023-03-01T01:03:50.501Z,12.45
2023-03-01T01:06:18.243Z,13.02
2023-03-01T01:08:44.594Z,12.70
2023-03-01T01:11:12.544Z,13.27
2023-03-01T01:13:39.644Z,11.95
2023-03-01T01:16:07.393Z,13.60
2023-03-01T01:18:34.007Z,12.50
2023-03-01T01:21:04.401Z,12.43
2023-03-01T01:23:30.766Z,12.65
2023-03-01T01:25:57.158Z,12.85
2023-03-01T01:28:23.584Z,11.50
2023-03-01T01:30:51.311Z,12.27
2023-03-01T01:33:17.672Z,12.80
2023-03-01T01:35:45.960Z,11.70
2023-03-01T01:38:12.279Z,11.77
2023-03-01T01:40:46.179Z,13.65
2023-03-01T01:43:26.203Z,12.27
2023-03-01T01:45:56.263Z,12.45
2023-03-01T01:48:24.956Z,13.25
2023-03-01T01:50:55.043Z,13.82
2023-03-01T01:53:21.915Z,13.45
2023-03-01T01:55:51.695Z,14.32
2023-03-01T01:58:20.184Z,13.32
2023-03-01T02:00:47.715Z,14.05
2023-03-01T02:03:18.811Z,14.85
2023-03-01T02:05:55.451Z,14.88
2023-03-01T02:08:23.704Z,13.80
2023-03-01T02:10:51.125Z,14.07
2023-03-01T02:13:17.493Z,14.82
2023-03-01T02:15:45.080Z,14.73
2023-03-01T02:18:12.777Z,15.20
2023-03-01T02:20:57.923Z,15.57
2023-03-01T02:23:24.416Z,14.90
2023-03-01T02:25:57.570Z,14.77
2023-03-01T02:28:31.015Z,15.40
2023-03-01T02:31:16.313Z,15.18
2023-03-01T02:33:43.674Z,17.00
2023-03-01T02:36:14.136Z,16.58
2023-03-01T02:38:44.224Z,17.40
2023-03-01T02:41:12.756Z,16.42
2023-03-01T02:43:39.208Z,15.07
2023-03-01T02:46:10.178Z,17.27
2023-03-01T02:48:44.033Z,16.05
2023-03-01T02:51:11.444Z,15.93
2023-03-01T02:53:56.772Z,17.58
2023-03-01T02:56:23.218Z,15.57
2023-03-01T02:58:52.564Z,15.88
2023-03-01T03:01:20.710Z,17.13
2023-03-01T03:03:47.557Z,16.25
2023-03-01T03:06:14.657Z,16.92
2023-03-01T03:08:41.772Z,16.35
2023-03-01T03:11:08.227Z,16.95
2023-03-01T03:13:34.882Z,16.90
2023-03-01T03:16:03.122Z,16.08
2023-03-01T03:18:29.595Z,17.25
2023-03-01T03:20:55.952Z,16.00
2023-03-01T03:23:22.615Z,17.23
2023-03-01T03:25:50.157Z,16.13
2023-03-01T03:28:16.811Z,17.83
2023-03-01T03:30:43.217Z,18.67
2023-03-01T03:33:13.109Z,18.13
2023-03-01T03:35:44.541Z,18.65
2023-03-01T03:38:16.722Z,17.75
2023-03-01T03:41:01.961Z,17.08
2023-03-01T03:43:28.272Z,17.05
2023-03-01T03:45:54.997Z,17.58
2023-03-01T03:48:21.875Z,16.80
2023-03-01T03:50:50.172Z,17.10
2023-03-01T03:53:16.526Z,18.40
2023-03-01T03:55:42.879Z,16.95
2023-03-01T03:58:10.578Z,16.13
2023-03-01T04:00:39.398Z,16.73
2023-03-01T04:03:05.984Z,17.45
2023-03-01T04:05:32.510Z,19.02
2023-03-01T04:08:07.961Z,17.15
2023-03-01T04:10:36.618Z,16.00
2023-03-01T04:13:03.292Z,17.02
2023-03-01T04:15:29.724Z,16.77
2023-03-01T04:17:56.190Z,16.92
2023-03-01T04:20:27.324Z,17.58
2023-03-01T04:23:00.414Z,17.58
2023-03-01T04:25:27.129Z,18.13
2023-03-01T04:27:53.451Z,16.95
2023-03-01T04:30:19.913Z,17.15
2023-03-01T04:32:46.341Z,16.63
2023-03-01T04:35:12.745Z,17.48
2023-03-01T04:37:39.439Z,16.45
2023-03-01T04:40:24.199Z,17.05
2023-03-01T04:42:50.607Z,18.00
2023-03-01T04:45:16.903Z,16.88
2023-03-01T04:47:45.183Z,16.83
2023-03-01T04:50:12.461Z,17.00
2023-03-01T04:52:39.166Z,17.17
2023-03-01T04:55:06.160Z,17.08
2023-03-01T04:57:32.894Z,16.88
2023-03-01T04:59:59.212Z,17.58
2023-03-01T05:02:25.574Z,18.15
2023-03-01T05:04:52.231Z,17.60
2023-03-01T05:07:22.425Z,16.98
2023-03-01T05:09:49.043Z,16.75
2023-03-01T05:12:15.936Z,17.20
2023-03-01T05:14:42.393Z,17.55
2023-03-01T05:17:08.779Z,17.48
2023-03-01T05:19:35.374Z,17.70
2023-03-01T05:22:04.901Z,17.17
2023-03-01T05:24:32.425Z,17.45
2023-03-01T05:26:59.251Z,18.05
2023-03-01T05:29:26.576Z,17.17
2023-03-01T05:31:56.997Z,19.35
2023-03-01T05:34:26.943Z,18.65
2023-03-01T05:36:54.043Z,18.70
2023-03-01T05:39:24.452Z,19.27
2023-03-01T05:41:54.163Z,20.15
2023-03-01T05:44:21.204Z,19.60
2023-03-01T05:46:47.655Z,19.13
2023-03-01T05:49:14.529Z,20.23
2023-03-01T05:51:42.310Z,19.27
2023-03-01T05:54:08.897Z,19.92
2023-03-01T05:56:35.491Z,20.13
2023-03-01T05:59:02.185Z,20.50
2023-03-01T06:01:28.665Z,19.63
2023-03-01T06:03:55.020Z,19.25
2023-03-01T06:06:21.378Z,19.23
2023-03-01T06:08:47.801Z,20.63
2023-03-01T06:11:14.166Z,19.17
2023-03-01T06:13:41.676Z,20.13
2023-03-01T06:16:08.425Z,20.15
2023-03-01T06:18:34.842Z,20.08
2023-03-01T06:21:01.200Z,19.75
2023-03-01T06:23:27.767Z,19.38
2023-03-01T06:25:55.454Z,18.88
2023-03-01T06:28:21.871Z,19.80
2023-03-01T06:30:48.459Z,18.95
2023-03-01T06:33:14.957Z,20.02
2023-03-01T06:35:41.402Z,18.70
2023-03-01T06:38:07.873Z,18.65
2023-03-01T06:40:36.142Z,19.90
2023-03-01T06:43:02.512Z,19.38
2023-03-01T06:45:28.925Z,18.17
2023-03-01T06:48:02.187Z,19.92
2023-03-01T06:50:28.532Z,20.60
2023-03-01T06:52:57.968Z,20.67
2023-03-01T06:55:24.334Z,20.30
2023-03-01T06:57:54.876Z,19.73
2023-03-01T07:00:21.568Z,17.33
2023-03-01T07:02:48.024Z,20.55
2023-03-01T07:05:14.529Z,20.98
2023-03-01T07:07:40.920Z,32.60
2023-03-01T07:10:07.673Z,25.55
2023-03-01T07:12:34.071Z,26.10
2023-03-01T07:15:00.430Z,23.80
2023-03-01T07:17:26.760Z,22.52
2023-03-01T07:19:53.126Z,22.95
2023-03-01T07:22:19.547Z,22.33
2023-03-01T07:24:45.933Z,21.33
2023-03-01T07:27:12.327Z,22.55
2023-03-01T07:29:38.761Z,22.83
2023-03-01T07:32:05.931Z,21.65
2023-03-01T07:34:32.727Z,22.75
2023-03-01T07:36:59.140Z,22.38
2023-03-01T07:39:25.590Z,21.48
2023-03-01T07:41:52.392Z,20.35
2023-03-01T07:44:22.025Z,20.17
2023-03-01T07:46:48.444Z,21.05
2023-03-01T07:49:14.783Z,21.95
2023-03-01T07:51:41.169Z,21.70
2023-03-01T07:54:07.566Z,21.10
2023-03-01T07:56:34.207Z,20.35
2023-03-01T07:59:00.872Z,20.50
2023-03-01T08:01:27.324Z,20.55
2023-03-01T08:03:53.693Z,18.27
2023-03-01T08:06:20.069Z,16.73
2023-03-01T08:08:46.720Z,15.90
2023-03-01T08:11:15.144Z,13.40
2023-03-01T08:13:41.682Z,13.95
2023-03-01T08:16:10.656Z,13.45
2023-03-01T08:18:37.037Z,12.18
2023-03-01T08:21:07.763Z,12.35
2023-03-01T08:23:34.180Z,11.52
2023-03-01T08:26:04.399Z,11.48
2023-03-01T08:28:30.783Z,11.70
2023-03-01T08:30:57.165Z,10.73
2023-03-01T08:33:23.537Z,12.10
2023-03-01T08:35:50.149Z,10.63
2023-03-01T08:38:16.571Z,11.20
2023-03-01T08:40:42.923Z,10.95
2023-03-01T08:43:09.382Z,10.02
2023-03-01T08:45:35.757Z,11.07
2023-03-01T08:48:02.167Z,9.63
2023-03-01T08:50:28.699Z,10.45
2023-03-01T08:52:55.070Z,7.10
2023-03-01T08:55:21.374Z,10.30
2023-03-01T08:57:47.674Z,9.52
2023-03-01T09:00:15.777Z,9.57
2023-03-01T09:02:42.180Z,9.10
2023-03-01T09:05:08.842Z,9.45
2023-03-01T09:07:35.162Z,8.00
2023-03-01T09:10:01.556Z,7.40
2023-03-01T09:12:27.961Z,7.05
2023-03-01T09:14:54.315Z,8.25
2023-03-01T09:17:22.433Z,7.35
2023-03-01T09:19:49.493Z,7.68
2023-03-01T09:22:15.962Z,7.05
2023-03-01T09:24:42.516Z,6.22
2023-03-01T09:27:09.707Z,5.43
2023-03-01T09:29:38.226Z,3.67
2023-03-01T09:32:05.057Z,5.55
2023-03-01T09:34:32.030Z,6.18
2023-03-01T09:36:58.615Z,5.50
2023-03-01T09:39:24.984Z,3.95
2023-03-01T09:41:54.375Z,5.65
2023-03-01T09:44:42.857Z,6.63
2023-03-01T09:47:16.136Z,5.40
2023-03-01T09:49:49.490Z,4.47
2023-03-01T09:52:20.258Z,4.68
2023-03-01T09:54:47.611Z,3.70
2023-03-01T09:57:29.072Z,3.50
2023-03-01T10:00:01.731Z,3.78
2023-03-01T10:02:39.158Z,3.10
2023-03-01T10:05:24.647Z,4.10
2023-03-01T10:07:59.883Z,3.45
2023-03-01T10:10:32.408Z,3.40
2023-03-01T10:13:00.831Z,4.03
2023-03-01T10:15:36.953Z,2.45
2023-03-01T10:18:10.964Z,3.58
2023-03-01T10:20:43.123Z,2.20
2023-03-01T10:23:09.888Z,3.70
2023-03-01T10:25:40.425Z,2.58
2023-03-01T10:28:26.658Z,3.33
2023-03-01T10:30:54.535Z,3.58
2023-03-01T10:33:30.057Z,2.35
2023-03-01T10:35:56.449Z,3.47
2023-03-01T10:38:22.961Z,3.47
2023-03-01T10:40:52.396Z,2.60
2023-03-01T10:43:19.203Z,2.90
2023-03-01T10:45:48.845Z,3.25
2023-03-01T10:48:16.551Z,2.80
2023-03-01T10:50:44.173Z,3.28
2023-03-01T10:53:30.207Z,2.90
2023-03-01T10:56:00.845Z,3.22
2023-03-01T10:58:29.922Z,2.22
2023-03-01T11:00:57.974Z,2.72
2023-03-01T11:03:44.606Z,2.70
2023-03-01T11:06:13.895Z,2.97
2023-03-01T11:08:44.378Z,2.80
2023-03-01T11:11:32.429Z,2.58
2023-03-01T11:14:26.988Z,2.38
2023-03-01T11:17:01.820Z,3.03
2023-03-01T11:19:28.336Z,2.70
2023-03-01T11:21:54.796Z,3.45
2023-03-01T11:24:24.043Z,3.15
2023-03-01T11:26:55.271Z,5.28
2023-03-01T11:29:28.548Z,3.05
2023-03-01T11:31:58.066Z,2.25
2023-03-01T11:34:29.061Z,3.33
2023-03-01T11:37:00.038Z,2.72
2023-03-01T11:39:32.186Z,2.22
2023-03-01T11:42:18.078Z,2.72
2023-03-01T11:44:45.757Z,2.95
2023-03-01T11:47:15.152Z,3.08
2023-03-01T11:49:47.650Z,2.72
2023-03-01T11:52:19.802Z,2.35
2023-03-01T11:54:49.005Z,2.80
2023-03-01T11:57:43.379Z,2.75
2023-03-01T12:02:52.468Z,2.10
2023-03-01T12:05:34.105Z,3.67
2023-03-01T12:08:09.182Z,3.10
2023-03-01T12:10:35.516Z,2.78
2023-03-01T12:13:07.651Z,2.45
2023-03-01T12:15:40.898Z,3.25
2023-03-01T12:18:12.455Z,3.65
2023-03-01T12:20:47.634Z,3.30
2023-03-01T12:23:25.640Z,3.00
2023-03-01T12:25:54.752Z,3.40
2023-03-01T12:28:32.174Z,3.13
2023-03-01T12:31:04.614Z,3.08
2023-03-01T12:33:45.996Z,3.15
2023-03-01T12:36:13.910Z,3.95
2023-03-01T12:38:42.662Z,3.47
2023-03-01T12:41:26.599Z,2.75
2023-03-01T12:44:11.731Z,2.53
2023-03-01T12:46:49.319Z,3.83
2023-03-01T12:49:27.033Z,3.00
2023-03-01T12:52:01.505Z,2.75
2023-03-01T12:54:30.420Z,2.88
2023-03-01T12:56:58.101Z,2.97
2023-03-01T12:59:33.401Z,2.55
2023-03-01T13:02:17.002Z,3.40
2023-03-01T13:05:08.217Z,3.05
2023-03-01T13:07:38.368Z,3.40
2023-03-01T13:10:04.755Z,2.30
2023-03-01T13:12:50.043Z,3.25
2023-03-01T13:15:36.832Z,3.22
2023-03-01T13:18:04.867Z,2.80
2023-03-01T13:20:50.490Z,3.05
2023-03-01T13:23:22.785Z,3.67
2023-03-01T13:26:01.371Z,3.25
2023-03-01T13:28:41.676Z,3.35
2023-03-01T13:31:09.304Z,2.63
2023-03-01T13:33:41.463Z,2.70
2023-03-01T13:36:09.651Z,2.53
2023-03-01T13:38:42.760Z,3.00
2023-03-01T13:41:09.235Z,3.40
2023-03-01T13:43:37.115Z,3.50
2023-03-01T13:46:16.492Z,3.63
2023-03-01T13:48:43.821Z,3.80
2023-03-01T13:51:11.898Z,3.22
2023-03-01T13:53:42.301Z,2.83
2023-03-01T13:56:10.751Z,3.17
2023-03-01T13:58:58.136Z,3.80
2023-03-01T14:01:27.431Z,3.88
2023-03-01T14:03:54.104Z,3.45
2023-03-01T14:06:22.425Z,2.85
2023-03-01T14:08:50.415Z,3.00
2023-03-01T14:11:19.823Z,3.60
2023-03-01T14:13:52.820Z,3.55
2023-03-01T14:16:31.467Z,3.13
2023-03-01T14:19:07.120Z,3.58
2023-03-01T14:21:33.511Z,2.78
2023-03-01T14:24:00.230Z,3.08
2023-03-01T14:26:26.758Z,3.17
2023-03-01T14:28:53.271Z,3.25
2023-03-01T14:31:52.144Z,3.08
2023-03-01T14:34:23.644Z,3.45
2023-03-01T14:36:50.507Z,3.88
2023-03-01T14:39:24.479Z,3.90
2023-03-01T14:41:52.020Z,3.63
2023-03-01T14:44:23.810Z,4.25
2023-03-01T14:46:56.341Z,4.00
2023-03-01T14:49:27.839Z,3.53
2023-03-01T14:51:58.157Z,3.10
2023-03-01T14:54:44.377Z,3.67
2023-03-01T14:57:15.494Z,3.95
2023-03-01T14:59:42.175Z,2.65
2023-03-01T15:02:20.166Z,3.65
2023-03-01T15:04:48.218Z,3.67
2023-03-01T15:07:15.049Z,3.38
2023-03-01T15:09:42.333Z,4.25
2023-03-01T15:12:27.349Z,3.00
2023-03-01T15:15:03.202Z,3.30
2023-03-01T15:17:39.981Z,4.20
2023-03-01T15:20:17.704Z,4.47
2023-03-01T15:22:49.345Z,3.70
2023-03-01T15:25:17.372Z,3.80
2023-03-01T15:27:47.184Z,3.53
2023-03-01T15:30:35.729Z,3.22
2023-03-01T15:33:21.172Z,3.22
2023-03-01T15:35:49.263Z,3.45
2023-03-01T15:38:26.146Z,3.53
2023-03-01T15:40:53.026Z,3.92
2023-03-01T15:43:38.007Z,3.80
2023-03-01T15:46:05.068Z,3.42
2023-03-01T15:48:31.522Z,3.88
2023-03-01T15:50:59.040Z,4.20
2023-03-01T15:53:25.687Z,4.05
2023-03-01T15:55:51.997Z,3.42
2023-03-01T15:58:20.289Z,3.75
2023-03-01T16:01:00.208Z,3.72
2023-03-01T16:03:27.458Z,3.95
2023-03-01T16:05:54.500Z,4.00
2023-03-01T16:08:20.987Z,4.97
2023-03-01T16:10:51.879Z,3.13
2023-03-01T16:13:18.674Z,4.32
2023-03-01T16:15:46.365Z,5.03
2023-03-01T16:18:12.951Z,18.00
2023-03-01T16:20:40.212Z,3.47
2023-03-01T16:23:08.053Z,7.22
2023-03-01T16:25:35.044Z,3.47
2023-03-01T16:28:05.658Z,4.60
2023-03-01T16:30:32.149Z,4.80
2023-03-01T16:32:59.363Z,3.92
2023-03-01T16:35:25.937Z,4.15
2023-03-01T16:37:54.766Z,3.33
2023-03-01T16:40:26.906Z,4.20
2023-03-01T16:42:53.672Z,4.20
2023-03-01T16:45:24.913Z,4.38
2023-03-01T16:47:54.457Z,3.92
2023-03-01T16:50:22.352Z,4.00
2023-03-01T16:52:49.463Z,4.22
2023-03-01T16:55:15.792Z,4.20
2023-03-01T16:57:42.175Z,4.72
2023-03-01T17:00:13.623Z,4.15
2023-03-01T17:02:41.750Z,4.30
2023-03-01T17:05:08.979Z,4.00
2023-03-01T17:07:35.473Z,3.97
2023-03-01T17:10:02.042Z,3.95
2023-03-01T17:12:30.850Z,10.40
2023-03-01T17:14:57.157Z,4.25
2023-03-01T17:17:23.567Z,4.97
2023-03-01T17:19:49.899Z,4.63
2023-03-01T17:22:17.416Z,4.57
2023-03-01T17:24:44.608Z,5.22
2023-03-01T17:27:12.489Z,3.97
2023-03-01T17:29:41.845Z,5.10
2023-03-01T17:32:08.871Z,4.78
2023-03-01T17:34:35.552Z,11.05
2023-03-01T17:37:02.073Z,4.82
2023-03-01T17:39:35.854Z,4.38
2023-03-01T17:42:03.265Z,4.68
2023-03-01T17:44:29.916Z,5.13
2023-03-01T17:46:56.352Z,4.93
2023-03-01T17:49:22.732Z,4.97
2023-03-01T17:51:49.184Z,4.47
2023-03-01T17:54:15.701Z,5.45
2023-03-01T17:56:42.794Z,4.80
2023-03-01T17:59:09.155Z,5.30
2023-03-01T18:01:36.117Z,5.32
2023-03-01T18:04:02.694Z,5.97
2023-03-01T18:06:29.156Z,5.65
2023-03-01T18:08:55.632Z,5.43
2023-03-01T18:11:23.256Z,4.82
2023-03-01T18:13:50.993Z,5.15
2023-03-01T18:16:17.962Z,4.75
2023-03-01T18:18:47.595Z,5.78
2023-03-01T18:21:14.647Z,4.55
2023-03-01T18:23:41.378Z,5.43
2023-03-01T18:26:08.840Z,5.07
2023-03-01T18:28:35.450Z,4.95
2023-03-01T18:31:03.884Z,5.43
2023-03-01T18:33:31.096Z,4.97
2023-03-01T18:36:00.576Z,7.00
2023-03-01T18:38:28.639Z,6.18
2023-03-01T18:40:55.714Z,7.05
2023-03-01T18:43:22.526Z,5.88
2023-03-01T18:45:49.169Z,6.53
2023-03-01T18:48:15.718Z,5.43
2023-03-01T18:50:42.414Z,6.35
2023-03-01T18:53:08.834Z,5.60
2023-03-01T18:55:36.359Z,6.03
2023-03-01T18:58:02.659Z,5.97
2023-03-01T19:00:29.005Z,6.30
2023-03-01T19:02:55.479Z,7.15
2023-03-01T19:05:23.301Z,5.50
2023-03-01T19:07:52.613Z,9.77
2023-03-01T19:10:19.951Z,7.00
2023-03-01T19:12:46.325Z,9.15
2023-03-01T19:15:13.551Z,7.10
2023-03-01T19:17:39.943Z,7.63
2023-03-01T19:20:06.686Z,7.43
2023-03-01T19:22:33.123Z,8.18
2023-03-01T19:24:59.515Z,7.95
2023-03-01T19:27:25.884Z,8.02
2023-03-01T19:29:52.381Z,7.90
2023-03-01T19:32:19.830Z,8.23
2023-03-01T19:34:46.798Z,8.23
2023-03-01T19:37:13.182Z,7.85
2023-03-01T19:39:41.911Z,7.57
2023-03-01T19:42:08.228Z,7.18
2023-03-01T19:44:34.695Z,15.32
2023-03-01T19:47:01.064Z,8.68
2023-03-01T19:49:29.634Z,10.95
2023-03-01T19:51:57.142Z,9.38
2023-03-01T19:54:23.694Z,9.25
2023-03-01T19:56:50.413Z,7.55
2023-03-01T19:59:19.504Z,7.80
2023-03-01T20:01:46.778Z,8.65
2023-03-01T20:04:13.298Z,7.63
2023-03-01T20:06:41.444Z,8.20
2023-03-01T20:09:20.300Z,8.48
2023-03-01T20:11:47.779Z,8.80
2023-03-01T20:14:14.236Z,8.15
2023-03-01T20:16:41.030Z,8.98
2023-03-01T20:19:07.447Z,8.80
2023-03-01T20:21:34.134Z,9.32
2023-03-01T20:24:01.026Z,7.95
2023-03-01T20:26:28.452Z,9.15
2023-03-01T20:28:56.859Z,9.00
2023-03-01T20:31:29.924Z,9.73
2023-03-01T20:33:59.699Z,8.35
2023-03-01T20:36:26.862Z,8.95
2023-03-01T20:38:54.079Z,8.48
2023-03-01T20:41:20.692Z,8.63
2023-03-01T20:43:54.316Z,9.82
2023-03-01T20:46:20.773Z,10.23
2023-03-01T20:48:47.143Z,9.45
2023-03-01T20:51:14.045Z,8.98
2023-03-01T20:53:40.468Z,9.80
2023-03-01T20:56:08.565Z,10.25
2023-03-01T20:58:35.773Z,9.75
2023-03-01T21:01:03.109Z,9.25
2023-03-01T21:03:29.858Z,8.80
2023-03-01T21:05:56.742Z,9.05
2023-03-01T21:08:23.086Z,9.95
2023-03-01T21:10:50.126Z,8.45
2023-03-01T21:13:16.526Z,8.73
2023-03-01T21:15:44.946Z,9.85
2023-03-01T21:18:11.831Z,9.73
2023-03-01T21:20:42.885Z,9.75
2023-03-01T21:23:09.254Z,9.77
2023-03-01T21:25:35.791Z,10.13
2023-03-01T21:28:02.209Z,10.45
2023-03-01T21:30:28.745Z,9.80
2023-03-01T21:32:57.170Z,9.48
2023-03-01T21:35:26.753Z,11.40
2023-03-01T21:37:53.149Z,8.85
2023-03-01T21:40:19.963Z,10.88
2023-03-01T21:42:48.710Z,9.88
2023-03-01T21:45:15.102Z,10.77
2023-03-01T21:47:41.545Z,10.48
2023-03-01T21:50:10.629Z,10.23
2023-03-01T21:52:37.017Z,8.38
2023-03-01T21:55:04.194Z,8.93
2023-03-01T21:57:30.605Z,7.65
2023-03-01T21:59:57.249Z,10.13
2023-03-01T22:02:23.776Z,8.40
2023-03-01T22:04:57.651Z,7.28
2023-03-01T22:07:24.206Z,8.57
2023-03-01T22:09:50.690Z,11.20
2023-03-01T22:12:17.529Z,10.85
2023-03-01T22:14:43.922Z,10.25
2023-03-01T22:17:10.429Z,10.85
2023-03-01T22:19:37.044Z,11.48
2023-03-01T22:22:03.898Z,10.85
2023-03-01T22:24:30.416Z,12.32
2023-03-01T22:26:57.053Z,11.32
2023-03-01T22:29:25.516Z,12.32
2023-03-01T22:31:53.140Z,14.70
2023-03-01T22:34:19.908Z,11.57
2023-03-01T22:36:46.677Z,13.10
2023-03-01T22:39:14.229Z,11.63
2023-03-01T22:41:44.016Z,16.75
2023-03-01T22:44:11.253Z,16.33
2023-03-01T22:46:38.448Z,17.33
2023-03-01T22:49:05.268Z,16.10
2023-03-01T22:51:32.995Z,17.23
2023-03-01T22:53:59.415Z,18.52
2023-03-01T22:56:28.827Z,18.40
2023-03-01T22:58:55.798Z,20.98
2023-03-01T23:01:25.036Z,11.75
2023-03-01T23:03:51.716Z,19.67
2023-03-01T23:06:18.632Z,20.88
2023-03-01T23:08:48.931Z,20.77
2023-03-01T23:11:17.353Z,21.48
2023-03-01T23:13:44.085Z,23.58
2023-03-01T23:16:11.131Z,22.83
2023-03-01T23:18:40.494Z,23.60
2023-03-01T23:21:10.385Z,20.77
2023-03-01T23:23:37.105Z,16.35
2023-03-01T23:26:03.796Z,25.17
2023-03-01T23:28:32.259Z,25.65
2023-03-01T23:31:02.915Z,25.38
2023-03-01T23:33:33.157Z,27.80
2023-03-01T23:36:02.764Z,27.73
2023-03-01T23:38:29.336Z,24.25
2023-03-01T23:40:56.521Z,30.00
2023-03-01T23:43:22.996Z,26.55
2023-03-01T23:45:52.371Z,26.95
2023-03-01T23:48:19.864Z,27.65
2023-03-01T23:50:46.999Z,27.67
2023-03-01T23:53:14.732Z,26.63
2023-03-01T23:55:44.818Z,15.00
2023-03-01T23:58:11.341Z,27.25
